createdAt,value
2018-03-24T00:02:13.075Z,11.10
2018-03-24T00:04:41.444Z,11.18
2018-03-24T00:07:08.997Z,12.05
2018-03-24T00:09:36.452Z,11.40
2018-03-24T00:12:03.912Z,10.50
2018-03-24T00:14:31.679Z,10.75
2018-03-24T00:16:59.140Z,10.70
2018-03-24T00:19:26.896Z,10.80
2018-03-24T00:21:54.360Z,10.88
2018-03-24T00:24:21.824Z,10.30
2018-03-24T00:26:49.504Z,10.63
2018-03-24T00:29:16.955Z,9.95
2018-03-24T00:31:44.408Z,10.57
2018-03-24T00:34:11.951Z,10.68
2018-03-24T00:36:39.428Z,10.52
2018-03-24T00:39:06.892Z,9.70
2018-03-24T00:41:34.539Z,10.82
2018-03-24T00:44:02.012Z,10.27
2018-03-24T00:46:29.547Z,11.45
2018-03-24T00:48:57.011Z,12.23
2018-03-24T00:51:24.464Z,9.20
2018-03-24T00:53:51.927Z,10.93
2018-03-24T00:56:19.388Z,10.98
2018-03-24T00:58:47.145Z,10.38
2018-03-24T01:01:14.609Z,10.10
2018-03-24T01:03:42.060Z,10.35
2018-03-24T01:06:09.539Z,11.40
2018-03-24T01:08:37.201Z,10.57
2018-03-24T01:11:04.651Z,10.30
2018-03-24T01:13:32.199Z,8.77
2018-03-24T01:15:59.664Z,11.82
2018-03-24T01:18:27.420Z,11.40
2018-03-24T01:20:54.879Z,10.93
2018-03-24T01:23:22.348Z,9.75
2018-03-24T01:25:49.807Z,11.60
2018-03-24T01:28:17.271Z,13.07
2018-03-24T01:30:45.020Z,10.90
2018-03-24T01:33:12.481Z,11.10
2018-03-24T01:35:39.935Z,10.95
2018-03-24T01:38:07.404Z,11.18
2018-03-24T01:40:34.857Z,11.80
2018-03-24T01:43:02.641Z,13.20
2018-03-24T01:45:30.380Z,12.57
2018-03-24T01:47:57.844Z,12.88
2018-03-24T01:50:25.311Z,11.73
2018-03-24T01:52:52.984Z,11.70
2018-03-24T01:55:20.441Z,12.25
2018-03-24T01:57:47.899Z,13.48
2018-03-24T02:00:15.439Z,14.87
2018-03-24T02:02:43.202Z,15.57
2018-03-24T02:05:10.664Z,14.00
2018-03-24T02:07:38.127Z,13.93
2018-03-24T02:10:05.591Z,15.27
2018-03-24T02:12:33.133Z,13.73
2018-03-24T02:15:00.795Z,11.68
2018-03-24T02:17:28.257Z,10.35
2018-03-24T02:19:55.719Z,11.73
2018-03-24T02:22:23.184Z,11.50
2018-03-24T02:24:52.445Z,12.85
2018-03-24T02:27:19.936Z,13.15
2018-03-24T02:29:47.391Z,12.63
2018-03-24T02:32:15.075Z,11.52
2018-03-24T02:34:42.617Z,9.77
2018-03-24T02:37:10.289Z,9.43
2018-03-24T02:39:38.672Z,8.88
2018-03-24T02:42:06.222Z,9.48
2018-03-24T02:44:33.980Z,9.13
2018-03-24T02:47:01.752Z,10.05
2018-03-24T02:49:29.208Z,10.43
2018-03-24T02:51:56.888Z,11.32
2018-03-24T02:54:24.424Z,10.00
2018-03-24T02:56:52.187Z,10.18
2018-03-24T02:59:19.648Z,10.90
2018-03-24T03:01:47.119Z,10.77
2018-03-24T03:04:14.872Z,9.25
2018-03-24T03:06:42.337Z,10.05
2018-03-24T03:09:09.811Z,10.77
2018-03-24T03:11:37.560Z,10.90
2018-03-24T03:14:05.020Z,10.18
2018-03-24T03:16:32.780Z,9.55
2018-03-24T03:19:00.248Z,10.10
2018-03-24T03:21:39.377Z,10.30
2018-03-24T03:24:06.852Z,10.43
2018-03-24T03:26:34.499Z,9.63
2018-03-24T03:29:02.056Z,10.73
2018-03-24T03:31:29.529Z,10.50
2018-03-24T03:33:57.184Z,10.48
2018-03-24T03:36:24.636Z,9.55
2018-03-24T03:38:52.188Z,11.18
2018-03-24T03:41:19.954Z,8.48
2018-03-24T03:43:47.712Z,9.60
2018-03-24T03:46:15.482Z,9.55
2018-03-24T03:48:42.958Z,10.68
2018-03-24T03:51:10.613Z,9.13
2018-03-24T03:53:38.073Z,10.57
2018-03-24T03:56:05.543Z,10.52
2018-03-24T03:58:33.005Z,11.38
2018-03-24T04:01:00.537Z,9.30
2018-03-24T04:03:28.298Z,11.48
2018-03-24T04:05:55.765Z,10.45
2018-03-24T04:08:23.444Z,11.12
2018-03-24T04:10:50.920Z,11.05
2018-03-24T04:13:18.436Z,10.70
2018-03-24T04:15:45.892Z,9.85
2018-03-24T04:18:13.367Z,10.50
2018-03-24T04:20:40.828Z,10.73
2018-03-24T04:23:08.505Z,10.80
2018-03-24T04:25:36.040Z,11.05
2018-03-24T04:28:03.524Z,11.20
2018-03-24T04:30:30.987Z,9.70
2018-03-24T04:32:58.716Z,11.07
2018-03-24T04:35:26.254Z,9.88
2018-03-24T04:37:53.849Z,9.98
2018-03-24T04:40:21.395Z,11.15
2018-03-24T04:42:49.171Z,12.23
2018-03-24T04:45:16.626Z,11.43
2018-03-24T04:47:44.083Z,11.15
2018-03-24T04:50:11.556Z,10.60
2018-03-24T04:52:39.021Z,11.07
2018-03-24T04:55:06.479Z,11.20
2018-03-24T04:57:34.024Z,11.05
2018-03-24T05:00:01.480Z,11.38
2018-03-24T05:02:29.140Z,11.52
2018-03-24T05:04:56.899Z,11.48
2018-03-24T05:07:24.368Z,11.43
2018-03-24T05:09:51.939Z,12.45
2018-03-24T05:12:19.505Z,9.70
2018-03-24T05:14:46.987Z,9.85
2018-03-24T05:17:14.437Z,9.82
2018-03-24T05:19:41.964Z,12.13
2018-03-24T05:22:09.428Z,11.25
2018-03-24T05:24:36.888Z,10.05
2018-03-24T05:27:04.648Z,10.68
2018-03-24T05:29:32.100Z,11.50
2018-03-24T05:31:59.763Z,13.20
2018-03-24T05:34:27.230Z,13.25
2018-03-24T05:36:54.771Z,12.68
2018-03-24T05:39:22.243Z,11.70
2018-03-24T05:41:49.697Z,11.05
2018-03-24T05:44:17.221Z,11.27
2018-03-24T05:46:44.693Z,10.80
2018-03-24T05:49:12.376Z,10.65
2018-03-24T05:51:40.044Z,12.02
2018-03-24T05:54:07.589Z,11.23
2018-03-24T05:56:35.047Z,12.02
2018-03-24T05:59:02.515Z,10.52
2018-03-24T06:01:30.288Z,11.25
2018-03-24T06:03:58.108Z,11.52
2018-03-24T06:06:25.553Z,12.25
2018-03-24T06:08:53.110Z,11.45
2018-03-24T06:11:20.568Z,12.65
2018-03-24T06:13:48.175Z,9.60
2018-03-24T06:16:15.649Z,12.82
2018-03-24T06:18:43.316Z,10.52
2018-03-24T06:21:11.547Z,12.00
2018-03-24T06:23:39.237Z,12.20
2018-03-24T06:26:06.713Z,11.38
2018-03-24T06:28:34.383Z,11.48
2018-03-24T06:31:05.500Z,11.30
2018-03-24T06:33:32.985Z,12.90
2018-03-24T06:36:16.277Z,12.00
2018-03-24T06:38:43.768Z,13.25
2018-03-24T06:41:12.051Z,12.37
2018-03-24T06:43:39.512Z,11.88
2018-03-24T06:46:07.099Z,13.50
2018-03-24T06:48:34.712Z,13.45
2018-03-24T06:51:02.180Z,11.32
2018-03-24T06:53:29.948Z,11.15
2018-03-24T06:55:57.411Z,11.57
2018-03-24T06:58:25.180Z,11.85
2018-03-24T07:00:52.640Z,13.40
2018-03-24T07:03:20.106Z,11.65
2018-03-24T07:05:47.840Z,11.40
2018-03-24T07:08:15.307Z,12.02
2018-03-24T07:10:42.766Z,11.20
2018-03-24T07:13:10.421Z,11.25
2018-03-24T07:15:37.981Z,12.10
2018-03-24T07:18:05.753Z,12.43
2018-03-24T07:20:33.508Z,12.80
2018-03-24T07:23:01.333Z,13.02
2018-03-24T07:25:29.028Z,12.80
2018-03-24T07:27:57.160Z,12.45
2018-03-24T07:30:24.639Z,12.63
2018-03-24T07:32:52.328Z,12.55
2018-03-24T07:35:19.796Z,11.77
2018-03-24T07:37:47.272Z,12.02
2018-03-24T07:40:14.976Z,11.35
2018-03-24T07:42:42.383Z,9.90
2018-03-24T07:45:09.928Z,10.90
2018-03-24T07:47:37.738Z,12.80
2018-03-24T07:50:05.160Z,11.05
2018-03-24T07:52:32.918Z,11.07
2018-03-24T07:55:00.680Z,11.25
2018-03-24T07:57:28.150Z,11.82
2018-03-24T07:59:55.603Z,11.68
2018-03-24T08:02:23.323Z,11.60
2018-03-24T08:04:50.801Z,11.00
2018-03-24T08:07:18.276Z,13.52
2018-03-24T08:09:46.037Z,10.02
2018-03-24T08:12:13.500Z,10.18
2018-03-24T08:14:41.212Z,11.30
2018-03-24T08:17:08.684Z,12.25
2018-03-24T08:19:36.140Z,12.48
2018-03-24T08:22:03.597Z,11.23
2018-03-24T08:24:31.110Z,12.43
2018-03-24T08:26:58.731Z,12.13
2018-03-24T08:29:26.196Z,10.93
2018-03-24T08:31:53.776Z,11.57
2018-03-24T08:34:21.253Z,13.32
2018-03-24T08:36:48.997Z,11.02
2018-03-24T08:39:16.451Z,13.13
2018-03-24T08:41:43.928Z,10.75
2018-03-24T08:44:11.683Z,12.25
2018-03-24T08:46:39.160Z,11.63
2018-03-24T08:49:06.906Z,11.27
2018-03-24T08:51:34.676Z,11.75
2018-03-24T08:54:02.444Z,12.52
2018-03-24T08:56:30.201Z,11.77
2018-03-24T08:58:57.887Z,11.32
2018-03-24T09:01:25.343Z,13.15
2018-03-24T09:03:52.879Z,12.90
2018-03-24T09:06:20.343Z,11.32
2018-03-24T09:08:48.142Z,13.00
2018-03-24T09:11:15.579Z,12.45
2018-03-24T09:13:43.039Z,12.23
2018-03-24T09:16:10.784Z,11.65
2018-03-24T09:18:38.263Z,12.10
2018-03-24T09:21:05.728Z,11.60
2018-03-24T09:23:33.209Z,11.27
2018-03-24T09:26:00.840Z,11.90
2018-03-24T09:28:28.300Z,11.50
2018-03-24T09:30:55.780Z,12.70
2018-03-24T09:33:23.292Z,12.20
2018-03-24T09:35:50.764Z,11.70
2018-03-24T09:38:18.348Z,11.30
2018-03-24T09:40:45.811Z,11.83
2018-03-24T09:43:13.437Z,11.60
2018-03-24T09:45:41.121Z,10.27
2018-03-24T09:48:08.667Z,10.30
2018-03-24T09:50:36.123Z,11.03
2018-03-24T09:53:03.708Z,11.00
2018-03-24T09:55:31.932Z,9.33
2018-03-24T09:57:59.417Z,8.80
2018-03-24T10:00:26.892Z,8.40
2018-03-24T10:02:54.587Z,10.23
2018-03-24T10:05:22.044Z,9.90
2018-03-24T10:07:49.541Z,8.73
2018-03-24T10:10:17.008Z,7.57
2018-03-24T10:12:44.624Z,8.53
2018-03-24T10:15:12.232Z,9.37
2018-03-24T10:17:39.715Z,8.33
2018-03-24T10:20:07.269Z,8.53
2018-03-24T10:22:47.241Z,9.20
2018-03-24T10:25:14.882Z,8.73
2018-03-24T10:27:42.355Z,7.57
2018-03-24T10:30:09.883Z,8.50
2018-03-24T10:32:37.340Z,9.00
2018-03-24T10:35:05.789Z,8.73
2018-03-24T10:37:39.104Z,8.00
2018-03-24T10:40:06.588Z,7.70
2018-03-24T10:42:34.240Z,8.17
2018-03-24T10:45:01.704Z,8.63
2018-03-24T10:47:29.163Z,7.27
2018-03-24T10:49:56.754Z,9.73
2018-03-24T10:52:24.415Z,7.90
2018-03-24T10:54:51.861Z,5.93
2018-03-24T10:57:19.605Z,6.07
2018-03-24T10:59:47.079Z,6.77
2018-03-24T11:02:14.551Z,7.70
2018-03-24T11:04:42.008Z,7.17
2018-03-24T11:07:09.673Z,7.90
2018-03-24T11:09:37.133Z,7.90
2018-03-24T11:12:04.757Z,7.47
2018-03-24T11:14:32.425Z,7.90
2018-03-24T11:16:59.884Z,8.27
2018-03-24T11:19:27.984Z,6.70
2018-03-24T11:21:55.440Z,7.60
2018-03-24T11:24:23.787Z,7.93
2018-03-24T11:26:51.407Z,8.07
2018-03-24T11:29:18.908Z,7.30
2018-03-24T11:31:46.393Z,7.63
2018-03-24T11:34:13.931Z,8.23
2018-03-24T11:36:41.397Z,8.10
2018-03-24T11:39:08.862Z,9.03
2018-03-24T11:41:36.616Z,8.53
2018-03-24T11:44:05.266Z,6.70
2018-03-24T11:46:32.755Z,7.33
2018-03-24T11:49:00.236Z,8.83
2018-03-24T11:51:28.459Z,7.33
2018-03-24T11:53:56.052Z,7.50
2018-03-24T11:56:24.301Z,7.73
2018-03-24T11:58:51.877Z,8.10
2018-03-24T12:01:19.344Z,7.03
2018-03-24T12:03:46.800Z,7.13
2018-03-24T12:06:14.273Z,7.33
2018-03-24T12:08:42.036Z,10.30
2018-03-24T12:11:09.800Z,7.80
2018-03-24T12:13:38.092Z,8.53
2018-03-24T12:16:05.548Z,8.20
2018-03-24T12:18:33.784Z,9.03
2018-03-24T12:21:01.389Z,8.43
2018-03-24T12:23:28.851Z,7.50
2018-03-24T12:25:56.322Z,8.50
2018-03-24T12:28:23.779Z,7.13
2018-03-24T12:30:51.310Z,6.43
2018-03-24T12:33:18.967Z,8.10
2018-03-24T12:35:46.428Z,7.20
2018-03-24T12:38:13.903Z,7.23
2018-03-24T12:40:41.382Z,6.43
2018-03-24T12:43:08.846Z,7.00
2018-03-24T12:45:36.312Z,8.57
2018-03-24T12:48:03.776Z,8.30
2018-03-24T12:50:31.269Z,7.43
2018-03-24T12:53:00.266Z,7.60
2018-03-24T12:55:27.760Z,8.33
2018-03-24T12:57:55.267Z,7.10
2018-03-24T13:00:22.728Z,7.87
2018-03-24T13:02:50.401Z,8.23
2018-03-24T13:05:17.868Z,6.80
2018-03-24T13:07:45.623Z,7.60
2018-03-24T13:10:14.615Z,8.40
2018-03-24T13:12:42.091Z,7.70
2018-03-24T13:15:09.555Z,8.30
2018-03-24T13:17:37.219Z,6.80
2018-03-24T13:20:04.681Z,7.63
2018-03-24T13:22:32.215Z,6.10
2018-03-24T13:24:59.683Z,7.43
2018-03-24T13:27:27.151Z,6.17
2018-03-24T13:29:54.896Z,6.93
2018-03-24T13:32:22.660Z,7.00
2018-03-24T13:34:50.429Z,6.90
2018-03-24T13:37:17.894Z,6.07
2018-03-24T13:39:45.350Z,6.40
2018-03-24T13:42:13.114Z,7.30
2018-03-24T13:44:40.587Z,6.90
2018-03-24T13:47:08.337Z,5.57
2018-03-24T13:49:35.791Z,5.47
2018-03-24T13:52:03.266Z,4.87
2018-03-24T13:54:31.012Z,4.93
2018-03-24T13:56:58.482Z,5.73
2018-03-24T13:59:25.939Z,5.30
2018-03-24T14:01:53.692Z,5.40
2018-03-24T14:04:21.168Z,5.10
2018-03-24T14:06:48.823Z,5.60
2018-03-24T14:09:16.377Z,5.10
2018-03-24T14:11:43.840Z,5.77
2018-03-24T14:14:11.291Z,6.13
2018-03-24T14:16:39.055Z,5.20
2018-03-24T14:19:06.522Z,5.23
2018-03-24T14:21:34.009Z,4.80
2018-03-24T14:24:01.643Z,4.70
2018-03-24T14:26:29.198Z,4.97
2018-03-24T14:28:56.658Z,4.70
2018-03-24T14:31:24.151Z,4.67
2018-03-24T14:33:51.876Z,5.30
2018-03-24T14:36:19.339Z,6.60
2018-03-24T14:38:46.987Z,4.90
2018-03-24T14:41:14.556Z,5.03
2018-03-24T14:43:43.521Z,4.80
2018-03-24T14:46:10.999Z,5.07
2018-03-24T14:48:38.452Z,5.00
2018-03-24T14:51:05.928Z,5.60
2018-03-24T14:53:33.687Z,4.97
2018-03-24T14:56:01.147Z,4.77
2018-03-24T14:58:28.608Z,5.23
2018-03-24T15:00:57.599Z,6.57
2018-03-24T15:03:26.596Z,4.73
2018-03-24T15:05:54.048Z,5.10
2018-03-24T15:08:21.509Z,4.87
2018-03-24T15:10:50.476Z,5.77
2018-03-24T15:13:17.931Z,4.90
2018-03-24T15:15:45.391Z,4.50
2018-03-24T15:18:12.885Z,4.97
2018-03-24T15:20:41.259Z,4.90
2018-03-24T15:23:09.012Z,5.67
2018-03-24T15:25:36.480Z,5.97
2018-03-24T15:28:03.948Z,6.60
2018-03-24T15:30:44.924Z,6.50
2018-03-24T15:33:26.062Z,7.13
2018-03-24T15:36:05.488Z,6.93
2018-03-24T15:38:32.960Z,6.93
2018-03-24T15:41:00.553Z,5.93
2018-03-24T15:43:28.033Z,7.50
2018-03-24T15:45:55.498Z,5.53
2018-03-24T15:48:23.185Z,6.53
2018-03-24T15:50:50.700Z,5.50
2018-03-24T15:53:18.327Z,5.97
2018-03-24T15:55:45.920Z,5.40
2018-03-24T15:58:14.219Z,6.10
2018-03-24T16:00:41.680Z,6.57
2018-03-24T16:03:09.131Z,7.17
2018-03-24T16:05:36.604Z,6.60
2018-03-24T16:08:04.187Z,6.80
2018-03-24T16:10:31.812Z,5.27
2018-03-24T16:12:59.354Z,4.90
2018-03-24T16:15:28.315Z,5.63
2018-03-24T16:17:55.960Z,6.37
2018-03-24T16:20:23.501Z,5.80
2018-03-24T16:22:50.984Z,5.90
2018-03-24T16:25:18.440Z,6.03
2018-03-24T16:27:45.952Z,6.27
2018-03-24T16:30:13.412Z,5.40
2018-03-24T16:32:40.868Z,6.43
2018-03-24T16:35:08.344Z,6.50
2018-03-24T16:37:36.028Z,5.40
2018-03-24T16:40:04.467Z,7.20
2018-03-24T16:42:33.455Z,6.40
2018-03-24T16:45:00.919Z,6.47
2018-03-24T16:47:29.916Z,6.93
2018-03-24T16:49:58.884Z,5.80
2018-03-24T16:52:26.360Z,6.47
2018-03-24T16:54:54.268Z,5.10
2018-03-24T16:57:21.887Z,5.07
2018-03-24T16:59:49.352Z,4.97
2018-03-24T17:02:17.243Z,6.80
2018-03-24T17:04:45.473Z,7.00
2018-03-24T17:07:12.956Z,5.80
2018-03-24T17:09:40.416Z,6.40
2018-03-24T17:12:08.083Z,6.30
2018-03-24T17:14:35.552Z,6.90
2018-03-24T17:17:03.100Z,6.53
2018-03-24T17:19:30.564Z,7.17
2018-03-24T17:21:58.047Z,7.13
2018-03-24T17:24:25.767Z,7.00
2018-03-24T17:26:53.228Z,8.03
2018-03-24T17:29:20.705Z,11.57
2018-03-24T17:31:48.380Z,7.50
2018-03-24T17:34:15.907Z,7.63
2018-03-24T17:36:43.368Z,7.67
2018-03-24T17:39:10.832Z,7.00
2018-03-24T17:41:38.400Z,7.10
2018-03-24T17:44:06.665Z,7.07
2018-03-24T17:46:34.138Z,7.43
2018-03-24T17:49:01.609Z,7.80
2018-03-24T17:51:29.080Z,7.57
2018-03-24T17:53:56.545Z,6.33
2018-03-24T17:56:24.013Z,7.03
2018-03-24T17:58:51.721Z,6.60
2018-03-24T18:01:19.451Z,7.10
2018-03-24T18:03:46.915Z,6.27
2018-03-24T18:06:14.372Z,7.10
2018-03-24T18:08:41.855Z,7.80
2018-03-24T18:11:09.321Z,7.30
2018-03-24T18:13:36.796Z,6.93
2018-03-24T18:16:04.395Z,6.90
2018-03-24T18:18:31.852Z,7.70
2018-03-24T18:20:59.327Z,5.90
2018-03-24T18:23:26.794Z,7.30
2018-03-24T18:25:54.274Z,7.70
2018-03-24T18:28:21.836Z,6.70
2018-03-24T18:30:49.592Z,7.37
2018-03-24T18:33:17.310Z,9.73
2018-03-24T18:35:44.780Z,8.60
2018-03-24T18:38:12.256Z,10.27
2018-03-24T18:40:39.727Z,7.90
2018-03-24T18:43:07.195Z,9.60
2018-03-24T18:45:34.663Z,8.67
2018-03-24T18:48:02.423Z,8.25
2018-03-24T18:50:30.180Z,8.37
2018-03-24T18:52:57.944Z,8.83
2018-03-24T18:55:25.633Z,8.30
2018-03-24T18:57:53.325Z,8.07
2018-03-24T19:00:20.884Z,9.07
2018-03-24T19:02:48.352Z,9.05
2018-03-24T19:05:15.845Z,8.88
2018-03-24T19:07:43.613Z,9.55
2018-03-24T19:10:11.148Z,10.27
2018-03-24T19:12:38.765Z,9.95
2018-03-24T19:15:06.233Z,9.52
2018-03-24T19:17:33.701Z,10.52
2018-03-24T19:20:01.232Z,9.60
2018-03-24T19:22:28.980Z,9.77
2018-03-24T19:24:56.748Z,11.40
2018-03-24T19:27:24.510Z,10.82
2018-03-24T19:29:51.986Z,11.23
2018-03-24T19:32:19.730Z,11.07
2018-03-24T19:34:47.200Z,11.10
2018-03-24T19:37:14.668Z,10.55
2018-03-24T19:39:42.325Z,9.88
2018-03-24T19:42:09.796Z,11.02
2018-03-24T19:44:37.264Z,11.05
2018-03-24T19:47:04.884Z,11.10
2018-03-24T19:49:32.352Z,11.20
2018-03-24T19:51:59.817Z,11.02
2018-03-24T19:54:28.056Z,12.10
2018-03-24T19:56:55.518Z,12.13
2018-03-24T19:59:23.000Z,10.55
2018-03-24T20:01:50.760Z,11.45
2018-03-24T20:04:18.523Z,10.73
2018-03-24T20:06:45.999Z,12.90
2018-03-24T20:09:13.748Z,11.77
2018-03-24T20:11:41.512Z,11.82
2018-03-24T20:14:08.975Z,12.65
2018-03-24T20:16:36.736Z,11.63
2018-03-24T20:19:04.200Z,12.75
2018-03-24T20:21:31.896Z,12.30
2018-03-24T20:23:59.365Z,12.90
2018-03-24T20:26:26.820Z,12.43
2018-03-24T20:28:54.291Z,12.30
2018-03-24T20:31:21.798Z,11.00
2018-03-24T20:33:49.560Z,11.20
2018-03-24T20:36:17.323Z,12.32
2018-03-24T20:38:44.784Z,11.02
2018-03-24T20:41:12.463Z,13.50
2018-03-24T20:43:39.924Z,11.27
2018-03-24T20:46:07.469Z,13.13
2018-03-24T20:48:35.144Z,10.95
2018-03-24T20:51:03.380Z,11.25
2018-03-24T20:53:30.840Z,13.00
2018-03-24T20:55:58.301Z,11.50
2018-03-24T20:58:25.984Z,12.70
2018-03-24T21:00:53.443Z,12.05
2018-03-24T21:03:21.120Z,13.48
2018-03-24T21:05:48.584Z,13.00
2018-03-24T21:08:16.039Z,13.20
2018-03-24T21:10:43.579Z,13.27
2018-03-24T21:13:11.322Z,13.15
2018-03-24T21:15:38.801Z,12.15
2018-03-24T21:18:06.260Z,12.65
2018-03-24T21:20:33.726Z,15.60
2018-03-24T21:23:01.488Z,15.38
2018-03-24T21:25:28.945Z,15.90
2018-03-24T21:27:56.706Z,12.68
2018-03-24T21:30:24.472Z,14.68
2018-03-24T21:32:52.239Z,13.88
2018-03-24T21:35:19.716Z,14.57
2018-03-24T21:37:47.181Z,14.25
2018-03-24T21:40:14.828Z,13.90
2018-03-24T21:42:42.371Z,13.95
2018-03-24T21:45:10.056Z,15.95
2018-03-24T21:47:38.526Z,15.07
2018-03-24T21:50:05.977Z,14.75
2018-03-24T21:52:33.740Z,16.73
2018-03-24T21:55:01.208Z,15.80
2018-03-24T21:57:28.892Z,16.70
2018-03-24T21:59:56.352Z,17.20
2018-03-24T22:02:23.808Z,16.50
2018-03-24T22:04:51.339Z,16.95
2018-03-24T22:07:18.811Z,16.83
2018-03-24T22:09:46.581Z,15.80
2018-03-24T22:12:14.032Z,16.27
2018-03-24T22:14:41.783Z,19.60
2018-03-24T22:17:09.552Z,19.58
2018-03-24T22:19:37.013Z,20.98
2018-03-24T22:22:04.472Z,20.20
2018-03-24T22:24:32.231Z,21.27
2018-03-24T22:26:59.734Z,20.45
2018-03-24T22:29:27.451Z,19.10
2018-03-24T22:31:55.220Z,20.80
2018-03-24T22:34:22.920Z,22.77
2018-03-24T22:36:50.379Z,21.83
2018-03-24T22:39:17.840Z,21.35
2018-03-24T22:41:45.315Z,22.85
2018-03-24T22:44:12.771Z,20.33
2018-03-24T22:46:40.280Z,19.42
2018-03-24T22:49:07.962Z,17.67
2018-03-24T22:51:35.421Z,15.07
2018-03-24T22:54:02.877Z,14.95
2018-03-24T22:56:30.419Z,23.23
2018-03-24T22:58:58.184Z,17.45
2018-03-24T23:01:25.812Z,18.60
2018-03-24T23:03:53.399Z,17.30
2018-03-24T23:06:21.166Z,18.20
2018-03-24T23:08:48.631Z,19.27
2018-03-24T23:11:16.340Z,18.85
2018-03-24T23:13:43.793Z,20.05
2018-03-24T23:16:11.259Z,17.00
2018-03-24T23:18:38.716Z,16.23
2018-03-24T23:21:06.228Z,13.18
2018-03-24T23:23:33.684Z,14.90
2018-03-24T23:26:01.152Z,13.00
2018-03-24T23:28:28.608Z,17.17
2018-03-24T23:30:56.087Z,18.02
2018-03-24T23:33:23.546Z,19.35
2018-03-24T23:35:51.271Z,22.30
2018-03-24T23:38:19.060Z,21.27
2018-03-24T23:40:46.675Z,20.67
2018-03-24T23:43:14.179Z,23.08
2018-03-24T23:45:42.638Z,21.58
2018-03-24T23:48:10.407Z,18.73
2018-03-24T23:50:38.094Z,19.15
2018-03-24T23:53:05.544Z,20.45
2018-03-24T23:55:33.088Z,20.65
2018-03-24T23:58:00.855Z,18.35
